Time,TemperatureF,DewpointF,PressureIn,WindDirection,WindDirectionDegrees,WindSpeedMPH,WindSpeedGustMPH,Humidity,HourlyPrecipIn,Conditions,Clouds,dailyrainin,SoftwareType,DateUTC
2014-09-01 08:15:00,60.4,47.4,29.80,WSW,247,0.0,0.0,62,0.00,,,0.00,WUHU21623XXSP,2014-09-01 15:15:00,
2014-09-01 08:20:00,61.0,47.9,29.80,WSW,247,0.0,0.0,62,0.00,,,0.00,WUHU21623XXSP,2014-09-01 15:20:00,
2014-09-01 08:25:00,61.5,48.4,29.79,WSW,247,0.0,0.0,62,0.00,,,0.00,WUHU21623XXSP,2014-09-01 15:25:00,
2014-09-01 08:30:00,61.9,48.7,29.79,WSW,247,0.0,0.0,62,0.00,,,0.00,WUHU21623XXSP,2014-09-01 15:30:00,
2014-09-01 08:35:00,62.4,48.8,29.79,WSW,247,0.0,0.0,61,0.00,,,0.00,WUHU21623XXSP,2014-09-01 15:35:00,
2014-09-01 08:40:00,63.1,49.3,29.79,WSW,247,0.0,14.1,61,0.00,,,0.00,WUHU21623XXSP,2014-09-01 15:40:00,
2014-09-01 08:45:00,63.5,49.4,29.79,WSW,247,0.0,14.1,60,0.00,,,0.00,WUHU21623XXSP,2014-09-01 15:45:00,
2014-09-01 08:50:00,64.2,50.0,29.79,WSW,247,0.0,0.0,60,0.00,,,0.00,WUHU21623XXSP,2014-09-01 15:50:00,
2014-09-01 08:55:00,64.6,49.9,29.79,WSW,247,0.0,14.1,59,0.00,,,0.00,WUHU21623XXSP,2014-09-01 15:55:00,
2014-09-01 09:00:00,65.3,50.1,29.79,WSW,247,0.0,14.1,58,0.00,,,0.00,WUHU21623XXSP,2014-09-01 16:00:00,
2014-09-01 09:05:00,66.2,51.0,29.79,WSW,247,0.0,0.0,58,0.00,,,0.00,WUHU21623XXSP,2014-09-01 16:05:00,
2014-09-01 09:10:00,67.3,51.0,29.79,WSW,247,0.0,0.0,56,0.00,,,0.00,WUHU21623XXSP,2014-09-01 16:10:00,
2014-09-01 09:15:00,68.2,51.3,29.79,WSW,247,0.0,0.0,55,0.00,,,0.00,WUHU21623XXSP,2014-09-01 16:15:00,
2014-09-01 09:20:00,69.1,51.7,29.79,WSW,247,0.0,0.0,54,0.00,,,0.00,WUHU21623XXSP,2014-09-01 16:20:00,
2014-09-01 09:25:00,70.0,52.0,29.79,WSW,247,0.0,0.0,53,0.00,,,0.00,WUHU21623XXSP,2014-09-01 16:25:00,
2014-09-01 09:30:00,70.9,51.8,29.79,WSW,247,0.0,0.0,51,0.00,,,0.00,WUHU21623XXSP,2014-09-01 16:30:00,
2014-09-01 09:35:00,71.8,52.1,29.79,WSW,247,0.0,0.0,50,0.00,,,0.00,WUHU21623XXSP,2014-09-01 16:35:00,
2014-09-01 09:40:00,72.7,52.4,29.79,WSW,247,0.0,0.0,49,0.00,,,0.00,WUHU21623XXSP,2014-09-01 16:40:00,
2014-09-01 09:45:00,73.2,52.3,29.79,NNW,337,14.1,14.1,48,0.00,,,0.00,WUHU21623XXSP,2014-09-01 16:45:00,
2014-09-01 09:50:00,73.9,52.3,29.79,NNW,337,14.1,14.1,47,0.00,,,0.00,WUHU21623XXSP,2014-09-01 16:50:00,
2014-09-01 09:55:00,75.0,52.8,29.79,NNW,337,14.1,14.1,46,0.00,,,0.00,WUHU21623XXSP,2014-09-01 16:55:00,
2014-09-01 10:00:00,75.4,53.1,29.79,NNW,337,14.1,14.1,46,0.00,,,0.00,WUHU21623XXSP,2014-09-01 17:00:00,
2014-09-01 10:05:00,75.7,52.8,29.79,NNW,337,14.1,14.1,45,0.00,,,0.00,WUHU21623XXSP,2014-09-01 17:05:00,
2014-09-01 10:10:00,75.7,52.8,29.79,NNW,337,14.1,14.1,45,0.00,,,0.00,WUHU21623XXSP,2014-09-01 17:10:00,
2014-09-01 10:51:00,80.1,53.7,29.78,NNW,337,14.1,14.1,40,0.00,,,0.00,WUHU21623XXSP,2014-09-01 17:51:00,
2014-09-01 10:56:00,80.4,53.2,29.79,NNW,337,14.1,14.1,39,0.00,,,0.00,WUHU21623XXSP,2014-09-01 17:56:00,
2014-09-01 11:01:00,81.1,53.1,29.79,NNW,337,14.1,14.1,38,0.00,,,0.00,WUHU21623XXSP,2014-09-01 18:01:00,
2014-09-01 11:06:00,81.3,53.2,29.79,NNW,337,14.1,14.1,38,0.00,,,0.00,WUHU21623XXSP,2014-09-01 18:06:00,
2014-09-01 11:11:00,81.7,53.5,29.78,NNW,337,14.1,14.1,38,0.00,,,0.00,WUHU21623XXSP,2014-09-01 18:11:00,
2014-09-01 11:37:00,84.6,53.7,29.78,NNE,22,0.0,0.0,35,0.00,,,0.00,WUHU21623XXSP,2014-09-01 18:37:00,
2014-09-01 11:42:00,84.7,53.9,29.78,NNE,22,0.0,0.0,35,0.00,,,0.00,WUHU21623XXSP,2014-09-01 18:42:00,
2014-09-01 14:28:00,92.3,53.2,29.76,NNE,22,0.0,0.0,27,0.00,,,0.00,WUHU21623XXSP,2014-09-01 21:28:00,
2014-09-01 14:33:00,92.3,53.2,29.76,NNE,22,0.0,0.0,27,0.00,,,0.00,WUHU21623XXSP,2014-09-01 21:33:00,
2014-09-01 15:38:00,93.6,50.9,29.74,NNW,337,14.1,14.1,24,0.00,,,0.00,WUHU21623XXSP,2014-09-01 22:38:00,
2014-09-01 15:43:00,93.6,50.9,29.74,NNW,337,14.1,14.1,24,0.00,,,0.00,WUHU21623XXSP,2014-09-01 22:43:00,
2014-09-01 16:31:00,93.9,50.1,29.74,NNW,337,14.1,14.1,23,0.00,,,0.00,WUHU21623XXSP,2014-09-01 23:31:00,
2014-09-01 16:36:00,93.9,50.1,29.74,NNW,337,14.1,14.1,23,0.00,,,0.00,WUHU21623XXSP,2014-09-01 23:36:00,
2014-09-01 17:40:00,93.0,49.4,29.73,NNW,337,14.1,14.1,23,0.00,,,0.00,WUHU21623XXSP,2014-09-02 00:40:00,
2014-09-01 17:45:00,93.0,49.4,29.73,NNW,337,14.1,14.1,23,0.00,,,0.00,WUHU21623XXSP,2014-09-02 00:45:00,
2014-09-01 17:50:00,93.0,49.4,29.73,NNW,337,14.1,14.1,23,0.00,,,0.00,WUHU21623XXSP,2014-09-02 00:50:00,
2014-09-01 17:55:00,92.8,49.2,29.73,NNW,337,14.1,14.1,23,0.00,,,0.00,WUHU21623XXSP,2014-09-02 00:55:00,
2014-09-01 18:00:00,92.8,49.2,29.73,NNW,337,14.1,14.1,23,0.00,,,0.00,WUHU21623XXSP,2014-09-02 01:00:00,
2014-09-01 18:23:00,91.6,50.4,29.72,NNW,337,14.1,14.1,25,0.00,,,0.00,WUHU21623XXSP,2014-09-02 01:23:00,
2014-09-01 18:28:00,91.6,50.4,29.72,NNW,337,14.1,14.1,25,0.00,,,0.00,WUHU21623XXSP,2014-09-02 01:28:00,